SWA1545 KHOU-KDAL
Flight info
| Callsign | SWA1545 |
|---|---|
| Flight time | N/A |
| Altitude | 30000 |
| Route | WYLSN8 MAJKK REDDN4 |
| Aircraft | B733/M-SDE2E3FHIRW/S |
Departure
| Time | 2026-05-05 10:31 |
|---|---|
| Airport | William P. Hobby Airport (KHOU) |
Arrival
| Time | N/A |
|---|---|
| Airport | Dallas Love Field (KDAL) |
| Time | Latitude | Longitude | Altitude | Speed | Heading |
|---|---|---|---|---|---|
| 2026-05-05 10:20 | 29.65214 | -95.27784 | 49 ft | 0 kts | 339° |
| 2026-05-05 10:24 | 29.65207 | -95.27781 | 49 ft | 2 kts | 339° |
| 2026-05-05 10:24 | 29.65193 | -95.27775 | 49 ft | 2 kts | 339° |
| 2026-05-05 10:24 | 29.65179 | -95.27768 | 49 ft | 2 kts | 339° |
| 2026-05-05 10:25 | 29.65165 | -95.27762 | 49 ft | 2 kts | 339° |
| 2026-05-05 10:25 | 29.65155 | -95.27758 | 49 ft | 2 kts | 337° |
| 2026-05-05 10:25 | 29.65143 | -95.27749 | 48 ft | 2 kts | 314° |
| 2026-05-05 10:25 | 29.65134 | -95.27735 | 48 ft | 2 kts | 297° |
| 2026-05-05 10:26 | 29.65129 | -95.27718 | 48 ft | 2 kts | 279° |
| 2026-05-05 10:26 | 29.65128 | -95.27709 | 48 ft | 1 kts | 268° |
| 2026-05-05 10:26 | 29.65128 | -95.27705 | 48 ft | 0 kts | 270° |
| 2026-05-05 10:27 | 29.65128 | -95.27710 | 48 ft | 1 kts | 272° |
| 2026-05-05 10:28 | 29.65133 | -95.27739 | 48 ft | 5 kts | 287° |
| 2026-05-05 10:28 | 29.65142 | -95.27800 | 49 ft | 10 kts | 270° |
| 2026-05-05 10:28 | 29.65164 | -95.27897 | 49 ft | 14 kts | 314° |
| 2026-05-05 10:28 | 29.65234 | -95.27992 | 49 ft | 16 kts | 285° |
| 2026-05-05 10:29 | 29.65234 | -95.28118 | 49 ft | 16 kts | 308° |
| 2026-05-05 10:29 | 29.65312 | -95.28222 | 49 ft | 16 kts | 289° |
| 2026-05-05 10:29 | 29.65277 | -95.28347 | 49 ft | 16 kts | 231° |
| 2026-05-05 10:29 | 29.65226 | -95.28463 | 49 ft | 16 kts | 267° |
| 2026-05-05 10:30 | 29.65175 | -95.28566 | 49 ft | 16 kts | 185° |
| 2026-05-05 10:30 | 29.65103 | -95.28560 | 49 ft | 6 kts | 153° |
| 2026-05-05 10:30 | 29.65090 | -95.28547 | 49 ft | 2 kts | 134° |
| 2026-05-05 10:30 | 29.64933 | -95.28361 | 49 ft | 63 kts | 134° |
| 2026-05-05 10:31 | 29.64490 | -95.27830 | 49 ft | 118 kts | 134° |
| 2026-05-05 10:31 | 29.63803 | -95.27007 | 54 ft | 160 kts | 135° |
| 2026-05-05 10:31 | 29.63018 | -95.26071 | 431 ft | 163 kts | 136° |
| 2026-05-05 10:31 | 29.62237 | -95.25097 | 871 ft | 166 kts | 136° |
| 2026-05-05 10:32 | 29.61482 | -95.24090 | 1327 ft | 168 kts | 135° |
| 2026-05-05 10:32 | 29.60758 | -95.22959 | 1671 ft | 179 kts | 122° |
| 2026-05-05 10:32 | 29.60458 | -95.21537 | 2043 ft | 197 kts | 96° |
| 2026-05-05 10:32 | 29.60746 | -95.19852 | 2169 ft | 229 kts | 70° |
| 2026-05-05 10:33 | 29.61685 | -95.18352 | 2720 ft | 239 kts | 41° |
| 2026-05-05 10:33 | 29.63207 | -95.17423 | 3140 ft | 252 kts | 12° |
| 2026-05-05 10:33 | 29.64960 | -95.17313 | 3664 ft | 256 kts | 350° |
| 2026-05-05 10:33 | 29.66735 | -95.17615 | 4275 ft | 259 kts | 346° |
| 2026-05-05 10:34 | 29.68578 | -95.18066 | 4664 ft | 274 kts | 342° |
| 2026-05-05 10:34 | 29.70465 | -95.18629 | 5281 ft | 279 kts | 342° |
| 2026-05-05 10:34 | 29.72357 | -95.19149 | 6026 ft | 280 kts | 344° |
| 2026-05-05 10:34 | 29.74278 | -95.19579 | 6687 ft | 284 kts | 346° |
| 2026-05-05 10:35 | 29.76256 | -95.20007 | 7409 ft | 285 kts | 346° |
| 2026-05-05 10:35 | 29.78208 | -95.20434 | 8141 ft | 286 kts | 346° |
| 2026-05-05 10:35 | 29.80163 | -95.20864 | 8880 ft | 285 kts | 345° |
| 2026-05-05 10:35 | 29.82118 | -95.21297 | 9602 ft | 285 kts | 345° |
| 2026-05-05 10:36 | 29.84083 | -95.21733 | 10248 ft | 289 kts | 345° |
| 2026-05-05 10:36 | 29.86152 | -95.22197 | 10323 ft | 314 kts | 345° |
| 2026-05-05 10:36 | 29.88387 | -95.22696 | 10570 ft | 332 kts | 345° |
| 2026-05-05 10:36 | 29.90696 | -95.23209 | 11131 ft | 338 kts | 345° |
| 2026-05-05 10:37 | 29.93004 | -95.23722 | 11798 ft | 340 kts | 345° |
| 2026-05-05 10:37 | 29.95337 | -95.24241 | 12445 ft | 342 kts | 345° |
| 2026-05-05 10:37 | 29.97693 | -95.24766 | 13101 ft | 345 kts | 345° |
| 2026-05-05 10:37 | 30.00073 | -95.25298 | 13758 ft | 347 kts | 345° |
| 2026-05-05 10:38 | 30.02467 | -95.25832 | 14457 ft | 347 kts | 344° |
| 2026-05-05 10:38 | 30.04833 | -95.26360 | 15168 ft | 347 kts | 344° |
| 2026-05-05 10:38 | 30.07217 | -95.26894 | 15804 ft | 348 kts | 344° |
| 2026-05-05 10:38 | 30.09614 | -95.27431 | 16395 ft | 351 kts | 344° |
| 2026-05-05 10:39 | 30.12046 | -95.27973 | 16942 ft | 354 kts | 344° |
| 2026-05-05 10:39 | 30.14504 | -95.28520 | 17539 ft | 356 kts | 344° |
| 2026-05-05 10:39 | 30.16957 | -95.29069 | 18103 ft | 358 kts | 343° |
| 2026-05-05 10:39 | 30.19399 | -95.29615 | 18670 ft | 359 kts | 343° |
| 2026-05-05 10:40 | 30.21903 | -95.30177 | 19170 ft | 363 kts | 343° |
| 2026-05-05 10:40 | 30.24379 | -95.30732 | 19699 ft | 365 kts | 343° |
| 2026-05-05 10:40 | 30.26903 | -95.31298 | 20231 ft | 367 kts | 342° |
| 2026-05-05 10:40 | 30.29433 | -95.31866 | 20792 ft | 368 kts | 342° |
| 2026-05-05 10:41 | 30.32040 | -95.32157 | 21223 ft | 382 kts | 354° |
| 2026-05-05 10:41 | 30.34743 | -95.31992 | 21666 ft | 387 kts | 355° |
| 2026-05-05 10:41 | 30.37422 | -95.31808 | 22103 ft | 390 kts | 355° |
| 2026-05-05 10:41 | 30.40143 | -95.31632 | 22593 ft | 390 kts | 354° |
| 2026-05-05 10:42 | 30.45652 | -95.31293 | 23412 ft | 396 kts | 354° |
| 2026-05-05 10:42 | 30.48389 | -95.31282 | 23753 ft | 389 kts | 344° |
| 2026-05-05 10:42 | 30.51032 | -95.31831 | 24207 ft | 384 kts | 340° |
| 2026-05-05 10:43 | 30.53695 | -95.32450 | 24615 ft | 386 kts | 340° |
| 2026-05-05 10:43 | 30.56352 | -95.33055 | 24915 ft | 391 kts | 340° |
| 2026-05-05 10:43 | 30.59045 | -95.33659 | 25335 ft | 392 kts | 340° |
| 2026-05-05 10:43 | 30.61768 | -95.34266 | 25697 ft | 394 kts | 340° |
| 2026-05-05 10:44 | 30.64463 | -95.34869 | 26028 ft | 396 kts | 340° |
| 2026-05-05 10:44 | 30.67184 | -95.35520 | 26400 ft | 397 kts | 340° |
| 2026-05-05 10:44 | 30.69908 | -95.36182 | 26716 ft | 400 kts | 340° |
| 2026-05-05 10:44 | 30.72687 | -95.36855 | 27047 ft | 402 kts | 340° |
| 2026-05-05 10:45 | 30.75413 | -95.37513 | 27392 ft | 403 kts | 340° |
| 2026-05-05 10:45 | 30.78187 | -95.38183 | 27795 ft | 403 kts | 340° |
| 2026-05-05 10:45 | 30.80950 | -95.38850 | 28256 ft | 401 kts | 340° |
| 2026-05-05 10:45 | 30.83672 | -95.39508 | 28700 ft | 399 kts | 340° |
| 2026-05-05 10:46 | 30.86423 | -95.40174 | 29172 ft | 397 kts | 340° |
| 2026-05-05 10:46 | 30.89128 | -95.40829 | 29622 ft | 395 kts | 340° |
| 2026-05-05 10:46 | 30.91842 | -95.41489 | 29813 ft | 397 kts | 339° |
| 2026-05-05 10:47 | 30.97314 | -95.42816 | 29869 ft | 396 kts | 339° |
| 2026-05-05 10:47 | 31.02751 | -95.44137 | 29848 ft | 395 kts | 339° |
| 2026-05-05 10:48 | 31.08159 | -95.45453 | 29850 ft | 396 kts | 339° |
| 2026-05-05 10:48 | 31.13640 | -95.46782 | 29827 ft | 395 kts | 339° |
| 2026-05-05 10:49 | 31.19051 | -95.48096 | 29854 ft | 396 kts | 339° |
| 2026-05-05 10:49 | 31.24508 | -95.49428 | 29856 ft | 397 kts | 340° |
| 2026-05-05 10:50 | 31.29937 | -95.50752 | 29851 ft | 396 kts | 339° |
| 2026-05-05 10:50 | 31.35387 | -95.52087 | 29828 ft | 395 kts | 339° |
| 2026-05-05 10:51 | 31.40790 | -95.53410 | 29830 ft | 395 kts | 339° |
| 2026-05-05 10:51 | 31.46219 | -95.54740 | 29828 ft | 394 kts | 339° |
| 2026-05-05 10:52 | 31.51621 | -95.56100 | 29824 ft | 389 kts | 334° |
| 2026-05-05 10:52 | 31.54066 | -95.57349 | 29852 ft | 377 kts | 324° |
| 2026-05-05 10:52 | 31.56430 | -95.58787 | 29823 ft | 381 kts | 325° |
| 2026-05-05 10:53 | 31.61148 | -95.61596 | 29210 ft | 375 kts | 326° |
| 2026-05-05 10:53 | 31.63488 | -95.62974 | 28390 ft | 375 kts | 326° |
| 2026-05-05 10:53 | 31.65846 | -95.64361 | 27597 ft | 374 kts | 326° |
| 2026-05-05 10:53 | 31.68184 | -95.65739 | 26964 ft | 377 kts | 325° |
| 2026-05-05 10:54 | 31.70573 | -95.67158 | 26479 ft | 387 kts | 325° |
| 2026-05-05 10:54 | 31.72959 | -95.68562 | 25996 ft | 378 kts | 326° |
| 2026-05-05 10:54 | 31.75315 | -95.69960 | 25480 ft | 370 kts | 325° |
| 2026-05-05 10:54 | 31.77591 | -95.71312 | 24972 ft | 362 kts | 325° |
| 2026-05-05 10:55 | 31.79838 | -95.72648 | 24474 ft | 361 kts | 325° |
| 2026-05-05 10:55 | 31.82152 | -95.74030 | 23986 ft | 376 kts | 326° |
| 2026-05-05 10:55 | 31.84508 | -95.75427 | 23463 ft | 372 kts | 326° |
| 2026-05-05 10:55 | 31.86799 | -95.76782 | 22950 ft | 364 kts | 326° |
| 2026-05-05 10:56 | 31.89047 | -95.78117 | 22447 ft | 358 kts | 326° |
| 2026-05-05 10:56 | 31.91257 | -95.79430 | 21957 ft | 351 kts | 326° |
| 2026-05-05 10:56 | 31.93439 | -95.80729 | 21481 ft | 354 kts | 326° |
| 2026-05-05 10:56 | 31.95709 | -95.82086 | 20990 ft | 363 kts | 326° |
| 2026-05-05 10:57 | 31.97948 | -95.83416 | 20492 ft | 356 kts | 326° |
| 2026-05-05 10:57 | 32.00126 | -95.84776 | 19996 ft | 344 kts | 320° |
| 2026-05-05 10:57 | 32.01876 | -95.86559 | 19530 ft | 329 kts | 310° |
| 2026-05-05 10:57 | 32.03464 | -95.88480 | 19082 ft | 322 kts | 310° |
| 2026-05-05 10:58 | 32.05043 | -95.90379 | 18655 ft | 327 kts | 310° |
| 2026-05-05 10:58 | 32.06672 | -95.92333 | 18211 ft | 333 kts | 310° |
| 2026-05-05 10:58 | 32.08279 | -95.94249 | 17895 ft | 321 kts | 310° |
| 2026-05-05 10:58 | 32.09845 | -95.96116 | 17558 ft | 310 kts | 310° |
| 2026-05-05 10:59 | 32.11385 | -95.97950 | 17169 ft | 322 kts | 311° |
| 2026-05-05 10:59 | 32.12997 | -95.99868 | 16734 ft | 327 kts | 311° |
| 2026-05-05 10:59 | 32.14577 | -96.01746 | 16278 ft | 320 kts | 311° |
| 2026-05-05 10:59 | 32.16134 | -96.03602 | 15829 ft | 313 kts | 311° |
| 2026-05-05 11:00 | 32.17661 | -96.05425 | 15406 ft | 314 kts | 311° |
| 2026-05-05 11:00 | 32.19262 | -96.07343 | 14979 ft | 327 kts | 311° |
| 2026-05-05 11:00 | 32.20865 | -96.09259 | 14524 ft | 322 kts | 311° |
| 2026-05-05 11:00 | 32.22414 | -96.11112 | 14086 ft | 315 kts | 311° |
| 2026-05-05 11:01 | 32.23969 | -96.12984 | 13654 ft | 312 kts | 311° |
| 2026-05-05 11:01 | 32.25470 | -96.14794 | 13230 ft | 307 kts | 311° |
| 2026-05-05 11:01 | 32.26966 | -96.16594 | 12805 ft | 302 kts | 311° |
| 2026-05-05 11:01 | 32.28447 | -96.18374 | 12393 ft | 297 kts | 311° |
| 2026-05-05 11:02 | 32.29897 | -96.20116 | 11991 ft | 293 kts | 311° |
| 2026-05-05 11:02 | 32.31324 | -96.21829 | 11589 ft | 289 kts | 311° |
| 2026-05-05 11:02 | 32.32739 | -96.23529 | 11186 ft | 284 kts | 311° |
| 2026-05-05 11:02 | 32.34108 | -96.25174 | 10802 ft | 279 kts | 311° |
| 2026-05-05 11:03 | 32.35473 | -96.26816 | 10422 ft | 274 kts | 311° |
| 2026-05-05 11:03 | 32.36811 | -96.28426 | 10048 ft | 270 kts | 311° |
| 2026-05-05 11:03 | 32.38101 | -96.29975 | 9889 ft | 257 kts | 311° |
| 2026-05-05 11:03 | 32.39331 | -96.31453 | 9907 ft | 241 kts | 311° |
| 2026-05-05 11:04 | 32.40533 | -96.32904 | 9980 ft | 255 kts | 311° |
| 2026-05-05 11:04 | 32.41806 | -96.34441 | 9835 ft | 264 kts | 311° |
| 2026-05-05 11:04 | 32.43022 | -96.35907 | 9445 ft | 265 kts | 311° |
| 2026-05-05 11:04 | 32.44371 | -96.37363 | 9161 ft | 262 kts | 321° |
| 2026-05-05 11:05 | 32.45919 | -96.38579 | 9058 ft | 265 kts | 322° |
| 2026-05-05 11:05 | 32.47473 | -96.39792 | 9058 ft | 266 kts | 322° |
| 2026-05-05 11:05 | 32.49036 | -96.41013 | 9075 ft | 266 kts | 322° |
| 2026-05-05 11:05 | 32.50593 | -96.42229 | 9071 ft | 267 kts | 322° |
| 2026-05-05 11:06 | 32.52151 | -96.43445 | 9078 ft | 266 kts | 322° |
| 2026-05-05 11:06 | 32.53708 | -96.44660 | 9072 ft | 266 kts | 322° |
| 2026-05-05 11:06 | 32.55280 | -96.45889 | 9071 ft | 266 kts | 322° |
| 2026-05-05 11:06 | 32.56835 | -96.47103 | 9063 ft | 266 kts | 323° |
| 2026-05-05 11:07 | 32.58406 | -96.48299 | 9054 ft | 266 kts | 323° |
| 2026-05-05 11:07 | 32.59995 | -96.49507 | 9054 ft | 267 kts | 323° |
| 2026-05-05 11:07 | 32.61551 | -96.50688 | 9045 ft | 266 kts | 323° |
| 2026-05-05 11:07 | 32.63122 | -96.51880 | 9029 ft | 265 kts | 323° |
| 2026-05-05 11:08 | 32.64688 | -96.53069 | 9049 ft | 266 kts | 323° |
| 2026-05-05 11:08 | 32.66267 | -96.54268 | 9057 ft | 266 kts | 323° |
| 2026-05-05 11:08 | 32.68144 | -96.55692 | 9057 ft | 267 kts | 323° |